Airfield :
LOGIN :

Register | Disclaimer

   EN    FR    IT 

 










Legend :    VFR   Marginal VFR   IFR   Intensive IFR   Very Intensive IFR
Visi :
Ceiling :
>= 8 km
>= 3000ft
5 to 8 km
1000 to 3000 ft
1500m to 5 km
500 to 1000 ft
800 to 1500m
200 to 500 ft
< 800m
< 200 ft
Symbols :   Thunderstorms  Fog  Heavy snow  Heavy precipitations  Wind > 20 kt
SIGMETs :     Misc.  Thunderstorms  Icing  Turbulence  Mountain Waves  Volcanic Ashes







- Airport Elevation : 106 ft
- IATA code : NRN


EDLV - Weeze

CURRENT METAR :
  • 191650Z 25003KT CAVOK 14/11 Q1020

EXPIRED METARs :
  • 191620Z 27004KT CAVOK 14/10 Q1020
  • 191550Z 28004KT 240V330 CAVOK 16/10 Q1020
  • 191520Z 29004KT 240V010 9999 FEW022 15/10 Q1019
  • 191450Z VRB05KT 9999 SCT021 15/10 Q1019
  • 191420Z VRB03KT 9999 BKN018 15/10 Q1019

TAF TAF EDLV
Valid from the 19 at 12:00 until the 20 at 12:00 UTC


191100Z 1912/2012 VRB03KT 8000 BKN013
BECMG 1912/1915 SCT015 BKN020
TEMPO 1912/1916 33005KT
TEMPO 2001/2008 3000 BR BKN007
BECMG 2006/2009 23007KT
No reported NOTAMs for that airfield.



MET'MAP, your aeronautical weather chart ! - Copyright ORBIFLY December 2007 - Disclaimer

ORBIFLY MET'MAP TEAM :

Programming & Development : Alexandra Zaïnal
Concept & Development : Baudouin d'Aumeries
Co-Development & Prog : Marc-Olivier Méhu
Technical & hardware support : Manuel Goepfert

Contact : metmap@orbifly.com




SOURCES & CREDITS :

   NOAA